Time;durP1;ratioP1;P1;durP2;ratioP2;P2;SDS_P1;SDS_P2;PMS_P1;PMS_P2;Temp;Humidity;BMP_temperature;BMP_pressure;BME280_temperature;BME280_humidity;BME280_pressure;Samples;Min_cycle;Max_cycle;Signal;HPM_P1;HPM_P2
2021/01/24 00:02:24;;;;;;;33.33;14.50;;;;;;;2.85;88.37;99476.58;1666382;86;21266;-64
2021/01/24 00:04:53;;;;;;;32.93;14.13;;;;;;;2.84;88.35;99472.19;1666383;86;21109;-62
2021/01/24 00:07:21;;;;;;;29.60;12.95;;;;;;;2.86;88.43;99473.70;1666319;84;21312;-61
2021/01/24 00:09:48;;;;;;;29.02;12.82;;;;;;;2.88;88.47;99468.63;1666523;86;21348;-61
2021/01/24 00:12:16;;;;;;;28.67;12.60;;;;;;;2.91;88.47;99460.17;1666417;86;21366;-61
2021/01/24 00:14:43;;;;;;;30.60;12.80;;;;;;;2.91;88.45;99458.81;1666383;86;21330;-60
2021/01/24 00:17:11;;;;;;;28.73;12.73;;;;;;;2.91;88.50;99448.84;1666305;86;21381;-62
2021/01/24 00:19:38;;;;;;;28.62;13.13;;;;;;;2.93;88.54;99445.97;1666411;86;21358;-62
2021/01/24 00:22:06;;;;;;;30.10;12.37;;;;;;;2.92;88.53;99449.18;1666372;86;21118;-62
2021/01/24 00:24:33;;;;;;;32.53;12.90;;;;;;;2.92;88.56;99436.16;1666322;84;21295;-61
2021/01/24 00:27:01;;;;;;;25.17;11.35;;;;;;;2.91;88.59;99433.97;1666336;85;21095;-61
2021/01/24 00:29:28;;;;;;;28.83;12.47;;;;;;;2.92;88.61;99434.30;1666538;85;21090;-61
2021/01/24 00:31:55;;;;;;;30.70;12.68;;;;;;;2.94;88.65;99436.32;1666396;86;21109;-61
2021/01/24 00:34:23;;;;;;;26.23;11.83;;;;;;;2.96;88.69;99434.28;1666306;86;21862;-62
2021/01/24 00:36:51;;;;;;;30.85;13.58;;;;;;;2.96;88.72;99430.23;1666574;86;21815;-62
2021/01/24 00:39:18;;;;;;;28.00;11.45;;;;;;;2.97;88.77;99422.95;1666357;86;21188;-61
2021/01/24 00:41:46;;;;;;;26.40;11.15;;;;;;;2.98;88.77;99420.08;1666394;86;21312;-62
2021/01/24 00:44:13;;;;;;;29.98;12.78;;;;;;;2.99;88.74;99419.06;1666396;86;21102;-61
2021/01/24 00:46:41;;;;;;;29.55;12.73;;;;;;;2.99;88.73;99408.75;1666360;86;21488;-62
2021/01/24 00:49:08;;;;;;;27.52;12.58;;;;;;;3.00;88.78;99409.08;1666381;86;21094;-61
2021/01/24 00:51:35;;;;;;;29.18;12.58;;;;;;;3.02;88.81;99409.24;1666368;86;21356;-62
2021/01/24 00:54:03;;;;;;;30.27;13.03;;;;;;;3.05;88.84;99411.60;1666449;86;21357;-63
2021/01/24 00:56:31;;;;;;;34.92;13.38;;;;;;;3.05;88.84;99403.99;1666396;86;21274;-61
2021/01/24 00:58:59;;;;;;;29.52;13.30;;;;;;;3.07;88.85;99403.31;1666497;86;21324;-62
2021/01/24 01:01:26;;;;;;;33.15;13.83;;;;;;;3.09;88.86;99403.98;1666344;86;21888;-61
2021/01/24 01:03:53;;;;;;;34.30;15.05;;;;;;;3.10;88.85;99402.96;1666330;86;21190;-61
2021/01/24 01:06:21;;;;;;;36.08;14.98;;;;;;;3.08;88.82;99399.59;1664871;85;21166;-61
2021/01/24 01:08:49;;;;;;;35.58;13.98;;;;;;;3.08;88.86;99395.53;1658649;85;21130;-61
2021/01/24 01:11:16;;;;;;;39.78;14.55;;;;;;;3.09;88.86;99395.35;1658652;86;21846;-62
2021/01/24 01:13:44;;;;;;;35.25;13.72;;;;;;;3.10;88.84;99394.84;1658740;86;21059;-62
2021/01/24 01:16:11;;;;;;;39.27;15.58;;;;;;;3.10;88.87;99390.27;1658793;85;21352;-62
2021/01/24 01:18:39;;;;;;;33.05;14.38;;;;;;;3.13;88.91;99390.44;1658550;86;21201;-60
2021/01/24 01:21:07;;;;;;;38.83;15.83;;;;;;;3.15;88.95;99378.92;1658741;86;21109;-63
2021/01/24 01:23:34;;;;;;;33.00;14.07;;;;;;;3.18;89.03;99383.98;1658675;85;21134;-61
2021/01/24 01:26:02;;;;;;;37.15;15.15;;;;;;;3.22;89.03;99384.48;1658637;86;21118;-60
2021/01/24 01:28:29;;;;;;;33.95;13.45;;;;;;;3.22;88.97;99390.73;1658637;86;21360;-61
2021/01/24 01:30:57;;;;;;;34.40;14.03;;;;;;;3.21;88.91;99392.27;1658696;85;21098;-62
2021/01/24 01:33:24;;;;;;;31.20;13.55;;;;;;;3.21;88.87;99396.33;1658591;86;21090;-61
2021/01/24 01:35:52;;;;;;;38.92;15.40;;;;;;;3.19;88.92;99385.16;1658744;86;21075;-62
2021/01/24 01:38:19;;;;;;;35.35;14.63;;;;;;;3.24;88.99;99382.44;1658650;86;21186;-61
2021/01/24 01:40:47;;;;;;;32.08;14.65;;;;;;;3.26;89.02;99381.79;1658596;86;21814;-62
2021/01/24 01:43:14;;;;;;;31.57;14.38;;;;;;;3.29;89.04;99391.75;1658716;86;21189;-61
2021/01/24 01:45:41;;;;;;;32.10;13.10;;;;;;;3.30;89.02;99381.27;1658696;85;21336;-62
2021/01/24 01:48:09;;;;;;;31.55;13.15;;;;;;;3.29;88.94;99378.22;1658609;86;21208;-62
2021/01/24 01:50:37;;;;;;;31.15;13.55;;;;;;;3.30;88.92;99387.19;1658774;86;21802;-62
2021/01/24 01:53:06;;;;;;;31.65;12.73;;;;;;;3.30;88.92;99384.48;1658758;86;21197;-62
2021/01/24 01:55:33;;;;;;;30.72;13.55;;;;;;;3.29;88.91;99382.79;1658617;85;21322;-62
2021/01/24 01:58:02;;;;;;;26.50;11.90;;;;;;;3.27;88.90;99388.38;1658712;86;21836;-62
2021/01/24 02:00:29;;;;;;;26.85;12.05;;;;;;;3.26;88.89;99388.05;1658681;86;21306;-61
2021/01/24 02:03:29;;;;;;;28.47;12.47;;;;;;;3.24;88.87;99377.88;1658606;86;21098;-61
2021/01/24 02:06:05;;;;;;;27.60;11.60;;;;;;;3.24;88.90;99372.97;1642087;86;21135;-61
2021/01/24 02:08:37;;;;;;;26.07;11.00;;;;;;;3.23;88.94;99369.41;1658673;85;21349;-62
2021/01/24 02:11:18;;;;;;;25.95;11.68;;;;;;;3.26;88.97;99366.90;1658417;86;21691;-61
2021/01/24 02:14:28;;;;;;;26.30;11.35;;;;;;;3.28;89.07;99368.41;1658766;86;21094;-61
2021/01/24 02:16:58;;;;;;;25.75;11.38;;;;;;;3.31;89.14;99357.23;1658790;86;21103;-61
2021/01/24 02:20:06;;;;;;;26.97;11.05;;;;;;;3.33;89.16;99352.48;1658628;86;21109;-61
2021/01/24 02:22:37;;;;;;;25.05;10.63;;;;;;;3.32;89.15;99341.32;1658631;85;21330;-61
2021/01/24 02:25:33;;;;;;;22.70;10.35;;;;;;;3.32;89.13;99341.83;1658764;86;21269;-61
2021/01/24 02:28:27;;;;;;;19.12;9.48;;;;;;;3.32;89.21;99338.61;1658785;86;21200;-62
2021/01/24 02:30:55;;;;;;;23.75;10.30;;;;;;;3.36;89.26;99336.39;1658747;85;21311;-61
2021/01/24 02:33:24;;;;;;;24.72;10.63;;;;;;;3.35;89.27;99344.19;1658851;86;21678;-61
2021/01/24 02:35:58;;;;;;;20.27;9.83;;;;;;;3.35;89.33;99342.83;1658874;86;21789;-62
2021/01/24 02:38:25;;;;;;;23.45;10.82;;;;;;;3.36;89.36;99351.28;1658750;86;21082;-62
2021/01/24 02:40:53;;;;;;;23.15;10.95;;;;;;;3.35;89.38;99351.80;1658709;86;21382;-61
2021/01/24 02:43:21;;;;;;;23.98;10.82;;;;;;;3.37;89.41;99347.56;1658730;86;21428;-62
2021/01/24 02:45:49;;;;;;;24.82;11.43;;;;;;;3.37;89.41;99345.69;1658733;86;21479;-61
2021/01/24 02:48:18;;;;;;;26.00;11.97;;;;;;;3.39;89.47;99340.09;1658781;85;21330;-62
2021/01/24 02:50:46;;;;;;;24.18;10.88;;;;;;;3.40;89.54;99337.21;1658743;86;21362;-61
2021/01/24 02:53:14;;;;;;;21.85;10.30;;;;;;;3.44;89.61;99337.70;1658820;86;21342;-60
2021/01/24 02:55:42;;;;;;;18.85;9.55;;;;;;;3.45;89.62;99336.68;1658692;86;21090;-62
2021/01/24 02:58:10;;;;;;;20.05;9.30;;;;;;;3.48;89.63;99333.62;1658743;85;21782;-62
2021/01/24 03:00:38;;;;;;;21.77;9.68;;;;;;;3.48;89.66;99329.55;1658831;86;21063;-61
2021/01/24 03:03:05;;;;;;;22.52;10.20;;;;;;;3.50;89.70;99332.41;1658677;86;21921;-61
2021/01/24 03:05:33;;;;;;;23.05;10.78;;;;;;;3.50;89.74;99329.70;1658706;86;21370;-61
2021/01/24 03:08:00;;;;;;;23.18;9.48;;;;;;;3.52;89.78;99324.63;1658719;86;21368;-61
2021/01/24 03:10:27;;;;;;;23.02;10.05;;;;;;;3.53;89.78;99326.31;1658677;86;21370;-61
2021/01/24 03:13:15;;;;;;;22.13;10.15;;;;;;;3.54;89.78;99313.10;1658807;86;21341;-61
2021/01/24 03:15:43;;;;;;;20.88;9.78;;;;;;;3.57;89.81;99320.86;1659003;86;21809;-61
2021/01/24 03:18:18;;;;;;;20.92;9.38;;;;;;;3.57;89.83;99312.23;1632089;86;21082;-62
2021/01/24 03:20:46;;;;;;;20.97;10.03;;;;;;;3.60;89.85;99309.67;1658316;86;21086;-61
2021/01/24 03:23:14;;;;;;;26.70;10.78;;;;;;;3.61;89.92;99305.95;1632120;86;21920;-61
2021/01/24 03:25:41;;;;;;;25.30;10.85;;;;;;;3.63;89.95;99302.55;1658740;86;21309;-61
2021/01/24 03:28:10;;;;;;;22.60;10.18;;;;;;;3.64;89.95;99300.17;1658807;86;21351;-61
2021/01/24 03:30:37;;;;;;;25.23;10.35;;;;;;;3.65;89.95;99294.56;1632268;86;21790;-61
2021/01/24 03:33:05;;;;;;;21.55;9.65;;;;;;;3.66;89.97;99289.48;1658746;86;21135;-61
2021/01/24 03:35:33;;;;;;;21.35;10.13;;;;;;;3.68;89.95;99281.17;1658875;86;21873;-61
2021/01/24 03:38:00;;;;;;;22.30;9.78;;;;;;;3.67;89.97;99278.98;1658853;86;21626;-60
2021/01/24 03:40:28;;;;;;;21.48;10.00;;;;;;;3.67;90.00;99274.92;1658741;86;21329;-63
2021/01/24 03:42:56;;;;;;;20.32;9.45;;;;;;;3.68;90.06;99275.25;1658792;86;21326;-62
2021/01/24 03:45:26;;;;;;;21.40;9.13;;;;;;;3.71;90.12;99269.98;1658668;86;21108;-61
2021/01/24 03:47:54;;;;;;;18.95;9.30;;;;;;;3.71;90.11;99280.30;1658738;86;21083;-62
2021/01/24 03:50:21;;;;;;;20.10;8.93;;;;;;;3.73;90.16;99274.70;1658836;86;21328;-61
2021/01/24 03:52:49;;;;;;;21.30;10.25;;;;;;;3.76;90.23;99277.05;1658717;86;21118;-61
2021/01/24 03:55:16;;;;;;;16.65;8.40;;;;;;;3.76;90.22;99275.69;1658754;86;21348;-61
2021/01/24 03:57:44;;;;;;;17.65;9.08;;;;;;;3.77;90.27;99270.09;1658682;86;21864;-62
2021/01/24 04:00:13;;;;;;;18.37;9.45;;;;;;;3.76;90.25;99275.69;1658756;86;21107;-62
2021/01/24 04:02:41;;;;;;;19.32;9.35;;;;;;;3.77;90.30;99268.73;1658831;86;21272;-62
2021/01/24 04:05:09;;;;;;;19.00;9.00;;;;;;;3.76;90.30;99262.99;1658748;86;21338;-61
2021/01/24 04:07:37;;;;;;;17.42;9.10;;;;;;;3.77;90.32;99263.84;1660478;84;21305;-61
2021/01/24 04:10:06;;;;;;;17.32;8.83;;;;;;;3.78;90.39;99266.88;1666524;86;21857;-62
2021/01/24 04:12:34;;;;;;;19.23;9.28;;;;;;;3.80;90.45;99277.02;1666436;85;21130;-63
2021/01/24 04:15:04;;;;;;;18.75;9.65;;;;;;;3.81;90.47;99267.35;1666362;86;21277;-62
2021/01/24 04:17:32;;;;;;;19.35;9.90;;;;;;;3.83;90.51;99259.05;1666460;86;21372;-63
2021/01/24 04:20:00;;;;;;;19.70;9.85;;;;;;;3.85;90.55;99256.15;1666417;85;21325;-62
2021/01/24 04:22:27;;;;;;;21.42;11.08;;;;;;;3.87;90.59;99259.52;1666365;84;21266;-62
2021/01/24 04:24:55;;;;;;;24.57;9.90;;;;;;;3.88;90.67;99255.27;1666628;86;21447;-61
2021/01/24 04:27:22;;;;;;;19.10;8.53;;;;;;;3.91;90.73;99252.23;1666417;86;21091;-61
2021/01/24 04:29:50;;;;;;;17.62;8.55;;;;;;;3.95;90.77;99253.55;1666682;86;21055;-62
2021/01/24 04:32:17;;;;;;;19.07;9.33;;;;;;;3.96;90.76;99257.09;1666574;86;21281;-61
2021/01/24 04:34:45;;;;;;;18.75;9.25;;;;;;;3.96;90.80;99249.81;1666411;85;21082;-61
2021/01/24 04:37:12;;;;;;;22.85;9.60;;;;;;;3.99;90.88;99249.95;1666473;86;21192;-63
2021/01/24 04:39:40;;;;;;;19.35;9.23;;;;;;;4.02;90.91;99249.59;1666388;85;21300;-62
2021/01/24 04:42:07;;;;;;;21.30;10.10;;;;;;;4.02;90.90;99250.94;1666423;86;21264;-61
2021/01/24 04:44:35;;;;;;;21.27;9.60;;;;;;;4.03;90.93;99249.41;1643390;86;21975;-64
2021/01/24 04:47:02;;;;;;;21.70;10.72;;;;;;;4.05;90.97;99250.06;1666406;86;21328;-61
2021/01/24 04:49:30;;;;;;;21.07;9.60;;;;;;;4.06;91.01;99238.70;1666366;86;21447;-61
2021/01/24 04:51:58;;;;;;;20.50;10.08;;;;;;;4.07;91.07;99246.66;1666351;85;21502;-62
2021/01/24 04:54:26;;;;;;;20.25;9.48;;;;;;;4.11;91.12;99241.19;1666350;86;21331;-62
2021/01/24 04:56:53;;;;;;;20.77;9.35;;;;;;;4.12;91.12;99241.52;1666430;86;21086;-61
2021/01/24 04:59:21;;;;;;;20.35;9.78;;;;;;;4.14;91.13;99235.41;1684729;83;21302;-61
2021/01/24 05:01:48;;;;;;;22.37;10.13;;;;;;;4.18;91.21;99237.23;1702035;83;21730;-61
2021/01/24 05:04:17;;;;;;;23.60;11.80;;;;;;;4.21;91.25;99227.88;1671796;85;21078;-61
2021/01/24 05:06:44;;;;;;;20.45;8.58;;;;;;;4.22;91.28;99229.56;1700970;84;21402;-62
2021/01/24 05:09:12;;;;;;;18.60;9.05;;;;;;;4.24;91.33;99234.29;1665810;85;21086;-61
2021/01/24 05:11:50;;;;;;;18.87;9.33;;;;;;;4.26;91.33;99236.30;1685540;85;21351;-62
2021/01/24 05:14:20;;;;;;;16.80;8.45;;;;;;;4.27;91.35;99233.41;1685786;85;21293;-61
2021/01/24 05:16:48;;;;;;;20.17;9.80;;;;;;;4.29;91.36;99224.57;1685426;84;21082;-61
2021/01/24 05:19:16;;;;;;;21.30;11.08;;;;;;;4.30;91.38;99228.12;1685636;85;21089;-62
2021/01/24 05:21:44;;;;;;;20.00;9.30;;;;;;;4.30;91.42;99224.89;1685533;85;21213;-62
2021/01/24 05:24:13;;;;;;;19.40;9.88;;;;;;;4.32;91.45;99226.91;1612290;85;21532;-62
2021/01/24 05:26:46;;;;;;;17.60;8.80;;;;;;;4.31;91.44;99219.80;1685506;85;21378;-62
2021/01/24 05:29:25;;;;;;;23.07;10.70;;;;;;;4.34;91.46;99219.94;1685491;85;21335;-61
2021/01/24 05:31:54;;;;;;;22.17;10.55;;;;;;;4.34;91.45;99225.36;1685584;85;21077;-60
2021/01/24 05:34:25;;;;;;;18.40;9.08;;;;;;;4.34;91.48;99219.94;1685637;84;21253;-61
2021/01/24 05:36:53;;;;;;;22.50;9.83;;;;;;;4.34;91.52;99222.66;1685493;84;21788;-61
2021/01/24 05:39:21;;;;;;;20.65;9.73;;;;;;;4.33;91.51;99217.74;1685528;85;21784;-61
2021/01/24 05:41:53;;;;;;;18.30;9.63;;;;;;;4.34;91.53;99222.66;1685551;84;21058;-61
2021/01/24 05:44:21;;;;;;;20.05;10.38;;;;;;;4.35;91.58;99212.97;1685392;85;21066;-62
2021/01/24 05:46:49;;;;;;;18.77;9.63;;;;;;;4.38;91.62;99222.09;1685656;85;21325;-62
2021/01/24 05:49:28;;;;;;;21.20;10.30;;;;;;;4.38;91.63;99216.67;1685614;85;21385;-62
2021/01/24 05:52:05;;;;;;;18.87;8.83;;;;;;;4.39;91.67;99221.06;1672010;85;21302;-61
2021/01/24 05:54:43;;;;;;;21.00;10.48;;;;;;;4.39;91.66;99218.86;1685596;84;21954;-61
2021/01/24 05:57:12;;;;;;;19.75;8.70;;;;;;;4.40;91.69;99213.77;1685629;85;21070;-61
2021/01/24 05:59:54;;;;;;;20.50;9.73;;;;;;;4.42;91.76;99211.20;1685584;85;21213;-60
2021/01/24 06:02:24;;;;;;;21.80;10.82;;;;;;;4.45;91.77;99201.84;1685600;85;21448;-62
2021/01/24 06:04:52;;;;;;;18.65;9.63;;;;;;;4.45;91.82;99202.69;1685742;85;21268;-61
2021/01/24 06:07:19;;;;;;;18.00;9.35;;;;;;;4.47;91.89;99203.86;1685549;85;21325;-62
2021/01/24 06:09:47;;;;;;;19.45;9.55;;;;;;;4.48;91.88;99201.47;1689897;85;21300;-62
2021/01/24 06:12:18;;;;;;;16.50;8.73;;;;;;;4.48;91.85;99198.75;1690740;85;21937;-62
2021/01/24 06:14:49;;;;;;;19.35;10.10;;;;;;;4.49;91.87;99199.59;1690788;85;21220;-62
2021/01/24 06:17:38;;;;;;;20.25;10.80;;;;;;;4.50;91.89;99190.43;1690923;85;21264;-62
2021/01/24 06:20:07;;;;;;;21.20;11.08;;;;;;;4.51;91.97;99190.25;1690829;84;21352;-62
2021/01/24 06:22:58;;;;;;;22.42;10.70;;;;;;;4.54;92.07;99191.73;1690799;85;21134;-62
2021/01/24 06:25:34;;;;;;;22.27;10.95;;;;;;;4.56;92.11;99183.77;1690828;84;21380;-62
2021/01/24 06:28:22;;;;;;;21.17;10.40;;;;;;;4.57;92.10;99178.67;1690909;84;21050;-61
2021/01/24 06:30:49;;;;;;;24.70;10.78;;;;;;;4.62;92.11;99183.53;1690646;85;21077;-62
2021/01/24 06:33:19;;;;;;;23.42;10.80;;;;;;;4.62;92.13;99188.95;1690952;84;21305;-62
2021/01/24 06:35:57;;;;;;;25.52;11.48;;;;;;;4.63;92.18;99187.41;1690630;84;21058;-62
2021/01/24 06:38:35;;;;;;;27.50;12.18;;;;;;;4.67;92.27;99183.28;1690752;84;21057;-62
2021/01/24 06:41:08;;;;;;;26.97;12.28;;;;;;;4.68;92.29;99184.97;1690329;84;21344;-60
2021/01/24 06:43:44;;;;;;;26.33;11.43;;;;;;;4.68;92.25;99187.68;1690444;84;21642;-62
2021/01/24 06:46:32;;;;;;;26.95;12.63;;;;;;;4.71;92.23;99187.81;1690235;84;21388;-61
2021/01/24 06:48:59;;;;;;;22.22;11.10;;;;;;;4.69;92.25;99189.36;1690279;85;21832;-61
2021/01/24 06:51:40;;;;;;;25.43;11.53;;;;;;;4.70;92.27;99186.98;1690876;84;21340;-61
2021/01/24 06:54:17;;;;;;;28.40;12.33;;;;;;;4.70;92.30;99192.41;1690839;85;21887;-61
2021/01/24 06:56:47;;;;;;;29.12;12.23;;;;;;;4.71;92.36;99188.66;1689215;85;21331;-61
2021/01/24 06:59:15;;;;;;;29.02;12.47;;;;;;;4.74;92.37;99195.06;1690801;85;21296;-62
2021/01/24 07:01:43;;;;;;;24.52;11.68;;;;;;;4.74;92.39;99192.34;1621375;85;21343;-62
2021/01/24 07:04:30;;;;;;;30.25;13.10;;;;;;;4.75;92.42;99196.74;1690847;84;21305;-62
2021/01/24 07:07:15;;;;;;;24.00;10.50;;;;;;;4.75;92.44;99198.09;1691109;85;21224;-62
2021/01/24 07:09:46;;;;;;;26.55;12.88;;;;;;;4.77;92.46;99193.32;1690647;85;21293;-61
2021/01/24 07:12:14;;;;;;;27.95;12.20;;;;;;;4.77;92.51;99191.13;1690963;85;21300;-62
2021/01/24 07:14:44;;;;;;;28.00;12.30;;;;;;;4.77;92.53;99179.75;1691060;85;21058;-63
2021/01/24 07:17:14;;;;;;;34.05;13.98;;;;;;;4.78;92.56;99189.58;1691020;84;21871;-62
2021/01/24 07:19:52;;;;;;;30.23;13.38;;;;;;;4.81;92.59;99185.64;1690874;85;21321;-62
2021/01/24 07:22:23;;;;;;;27.80;13.10;;;;;;;4.82;92.67;99186.48;1690863;84;21046;-62
2021/01/24 07:24:53;;;;;;;30.75;13.72;;;;;;;4.83;92.71;99184.94;1691080;85;21368;-62
2021/01/24 07:27:27;;;;;;;33.53;15.78;;;;;;;4.87;92.75;99186.75;1690825;84;21354;-62
2021/01/24 07:29:56;;;;;;;33.70;14.75;;;;;;;4.87;92.80;99186.23;1691021;84;21793;-62
2021/01/24 07:32:24;;;;;;;34.70;15.35;;;;;;;4.90;92.83;99183.14;1690718;85;21309;-61
2021/01/24 07:34:54;;;;;;;39.27;15.18;;;;;;;4.93;92.83;99183.27;1690946;85;21378;-63
2021/01/24 07:37:22;;;;;;;36.63;15.65;;;;;;;4.94;92.85;99185.80;1690925;85;21114;-62
2021/01/24 07:39:51;;;;;;;39.23;17.40;;;;;;;4.98;92.89;99183.02;1690981;84;21340;-62
2021/01/24 07:42:18;;;;;;;41.42;17.25;;;;;;;5.00;92.91;99185.03;1690924;84;21081;-62
2021/01/24 07:44:46;;;;;;;44.70;16.10;;;;;;;5.00;92.91;99184.19;1690925;85;21797;-62
2021/01/24 07:47:15;;;;;;;46.05;16.67;;;;;;;5.02;92.93;99180.77;1690685;84;21117;-63
2021/01/24 07:49:43;;;;;;;39.40;14.38;;;;;;;5.03;92.93;99175.66;1690881;84;21104;-61
2021/01/24 07:52:10;;;;;;;38.67;15.10;;;;;;;5.05;92.94;99185.30;1690882;85;21276;-61
2021/01/24 07:54:37;;;;;;;40.33;16.62;;;;;;;5.07;92.93;99182.39;1690971;85;21320;-62
2021/01/24 07:57:07;;;;;;;37.17;16.00;;;;;;;5.07;92.92;99183.75;1691090;85;21046;-62
2021/01/24 07:59:35;;;;;;;42.40;18.55;;;;;;;5.09;92.96;99181.68;1690938;85;21138;-62
2021/01/24 08:02:06;;;;;;;37.30;15.48;;;;;;;5.10;92.98;99177.41;1690980;84;21382;-62
2021/01/24 08:04:37;;;;;;;40.48;15.60;;;;;;;5.12;93.02;99169.08;1690851;84;21249;-64
2021/01/24 08:07:07;;;;;;;43.00;14.98;;;;;;;5.14;93.00;99168.37;1690948;85;21432;-61
2021/01/24 08:09:36;;;;;;;37.75;15.43;;;;;;;5.16;92.96;99162.74;1690837;84;21785;-62
2021/01/24 08:12:11;;;;;;;36.17;15.10;;;;;;;5.17;92.95;99163.91;1690958;85;21240;-62
2021/01/24 08:14:39;;;;;;;36.55;16.35;;;;;;;5.19;92.99;99157.77;1690857;85;21073;-61
2021/01/24 08:17:09;;;;;;;32.23;14.65;;;;;;;5.22;93.06;99157.41;1691054;84;21457;-63
2021/01/24 08:19:37;;;;;;;38.28;16.20;;;;;;;5.25;93.03;99152.95;1690904;85;21218;-62
2021/01/24 08:22:05;;;;;;;41.85;15.70;;;;;;;5.27;92.99;99153.59;1690964;85;21050;-61
2021/01/24 08:24:33;;;;;;;36.65;15.28;;;;;;;5.30;92.98;99148.30;1691084;85;21861;-61
2021/01/24 08:27:01;;;;;;;37.63;16.85;;;;;;;5.32;92.97;99153.02;1690979;85;21297;-62
2021/01/24 08:29:34;;;;;;;38.23;15.70;;;;;;;5.31;92.93;99149.45;1691037;84;21409;-62
2021/01/24 08:31:58;;;;;;;34.30;13.68;;;;;;;5.33;92.93;99137.88;1619773;85;21336;-62
2021/01/24 08:34:26;;;;;;;38.00;14.35;;;;;;;5.35;92.90;99133.09;1690919;84;21361;-62
2021/01/24 08:36:54;;;;;;;38.65;15.90;;;;;;;5.37;92.86;99138.33;1665004;85;21086;-63
2021/01/24 08:39:23;;;;;;;37.70;14.90;;;;;;;5.38;92.83;99147.64;1642932;85;21881;-62
2021/01/24 08:41:52;;;;;;;31.45;13.43;;;;;;;5.43;92.85;99131.28;1690605;85;21105;-63
2021/01/24 08:44:19;;;;;;;33.33;13.65;;;;;;;5.45;92.86;99127.84;1690427;85;21951;-63
2021/01/24 08:46:49;;;;;;;29.45;13.08;;;;;;;5.47;92.80;99135.28;1693486;85;21774;-62
2021/01/24 08:49:27;;;;;;;36.00;14.03;;;;;;;5.49;92.79;99131.33;1690730;84;21300;-61
2021/01/24 08:52:00;;;;;;;30.80;13.25;;;;;;;5.51;92.74;99140.13;1690823;84;21785;-62
2021/01/24 08:54:36;;;;;;;31.55;12.73;;;;;;;5.52;92.73;99131.45;1691056;85;21257;-63
2021/01/24 08:57:09;;;;;;;31.75;13.22;;;;;;;5.53;92.69;99130.42;1691146;85;21324;-62
2021/01/24 08:59:39;;;;;;;34.40;14.07;;;;;;;5.56;92.58;99134.10;1690862;84;21090;-64
2021/01/24 09:02:07;;;;;;;27.17;12.93;;;;;;;5.58;92.56;99136.11;1690913;85;21051;-62
2021/01/24 09:04:35;;;;;;;31.90;13.03;;;;;;;5.58;92.54;99130.67;1665060;85;21858;-61
2021/01/24 09:07:10;;;;;;;33.33;13.20;;;;;;;5.60;92.53;99129.95;1664638;85;21277;-61
2021/01/24 09:09:45;;;;;;;36.15;12.78;;;;;;;5.63;92.52;99126.33;1694705;84;21376;-62
2021/01/24 09:12:21;;;;;;;23.12;11.70;;;;;;;5.67;92.47;99139.00;1700770;83;21337;-61
2021/01/24 09:14:49;;;;;;;35.20;13.93;;;;;;;5.69;92.42;99128.25;1696158;84;21077;-63
2021/01/24 09:17:21;;;;;;;27.13;12.07;;;;;;;5.72;92.41;99135.17;1695771;84;21872;-62
2021/01/24 09:19:49;;;;;;;38.50;12.40;;;;;;;5.74;92.38;99129.02;1695747;84;21113;-63
2021/01/24 09:22:17;;;;;;;27.98;11.75;;;;;;;5.77;92.31;99130.50;1695859;84;21369;-62
2021/01/24 09:24:45;;;;;;;28.45;12.30;;;;;;;5.78;92.22;99122.15;1695776;83;21303;-63
2021/01/24 09:27:13;;;;;;;29.80;12.50;;;;;;;5.81;92.13;99124.98;1695752;84;21359;-62
2021/01/24 09:29:41;;;;;;;31.62;11.65;;;;;;;5.84;92.19;99121.36;1695855;84;21781;-64
2021/01/24 09:32:09;;;;;;;36.17;11.85;;;;;;;5.84;92.13;99121.36;1695876;84;21325;-62
2021/01/24 09:34:36;;;;;;;25.12;11.08;;;;;;;5.89;92.04;99113.51;1696029;84;21730;-63
2021/01/24 09:37:04;;;;;;;24.12;10.65;;;;;;;5.92;91.95;99111.75;1695891;84;21078;-62
2021/01/24 09:39:32;;;;;;;28.98;11.90;;;;;;;5.94;91.88;99109.67;1695728;84;21398;-63
2021/01/24 09:42:00;;;;;;;32.35;11.65;;;;;;;5.95;91.82;99105.91;1684064;84;21094;-66
2021/01/24 09:44:28;;;;;;;25.08;10.65;;;;;;;5.97;91.75;99103.84;1681718;84;21348;-67
2021/01/24 09:46:55;;;;;;;33.40;11.57;;;;;;;6.01;91.68;99102.91;1666644;86;21321;-67
2021/01/24 09:49:23;;;;;;;25.12;10.60;;;;;;;6.04;91.61;99099.80;1665945;84;21321;-67
2021/01/24 09:51:52;;;;;;;23.40;11.30;;;;;;;6.06;91.54;99096.36;1665995;84;21286;-65
2021/01/24 09:54:19;;;;;;;23.92;10.15;;;;;;;6.08;91.46;99094.80;1665958;86;21799;-67
2021/01/24 09:56:47;;;;;;;24.40;9.70;;;;;;;6.09;91.34;99099.20;1666058;86;21057;-64
2021/01/24 09:59:15;;;;;;;20.80;9.63;;;;;;;6.10;91.16;99094.91;1666507;86;21816;-64
2021/01/24 10:01:42;;;;;;;19.77;9.10;;;;;;;6.12;91.06;99085.20;1667426;84;21727;-62
2021/01/24 10:04:12;;;;;;;23.80;9.75;;;;;;;6.12;90.96;99090.64;1667150;84;21076;-63
2021/01/24 10:06:40;;;;;;;23.20;9.30;;;;;;;6.11;90.85;99078.08;1667321;84;21160;-65
2021/01/24 10:09:08;;;;;;;22.70;9.48;;;;;;;6.11;90.74;99078.08;1667497;84;21093;-64
2021/01/24 10:11:35;;;;;;;19.57;9.23;;;;;;;6.13;90.63;99078.72;1665803;84;21339;-64
2021/01/24 10:14:03;;;;;;;26.52;10.18;;;;;;;6.14;90.54;99081.75;1687777;84;21355;-63
2021/01/24 10:16:33;;;;;;;19.23;9.50;;;;;;;6.16;90.46;99086.47;1674594;85;21794;-66
2021/01/24 10:19:01;;;;;;;17.75;8.88;;;;;;;6.17;90.40;99086.79;1661664;85;21423;-63
2021/01/24 10:21:29;;;;;;;18.87;8.70;;;;;;;6.20;90.32;99085.03;1682368;85;21302;-62
2021/01/24 10:23:56;;;;;;;22.40;8.53;;;;;;;6.24;90.19;99077.63;1682549;84;21493;-63
2021/01/24 10:26:23;;;;;;;22.87;9.03;;;;;;;6.28;90.08;99075.34;1681802;84;21185;-61
2021/01/24 10:28:51;;;;;;;21.80;8.35;;;;;;;6.30;90.00;99064.57;1682225;84;21205;-65
2021/01/24 10:31:19;;;;;;;17.23;7.33;;;;;;;6.33;89.96;99061.44;1682081;85;21185;-66
2021/01/24 10:33:47;;;;;;;22.40;8.60;;;;;;;6.37;89.83;99061.88;1680854;85;21074;-65
2021/01/24 10:36:14;;;;;;;22.60;8.58;;;;;;;6.42;89.68;99065.34;1681995;85;21372;-63
2021/01/24 10:38:43;;;;;;;21.95;9.75;;;;;;;6.43;89.53;99058.86;1683065;85;21784;-63
2021/01/24 10:41:10;;;;;;;22.80;9.10;;;;;;;6.45;89.48;99055.41;1683479;84;21822;-64
2021/01/24 10:43:38;;;;;;;22.30;9.05;;;;;;;6.46;89.36;99048.41;1682858;85;21282;-64
2021/01/24 10:46:05;;;;;;;19.57;8.78;;;;;;;6.50;89.19;99052.92;1683272;85;21106;-64
2021/01/24 10:48:33;;;;;;;20.15;8.60;;;;;;;6.51;88.99;99055.47;1683384;85;21236;-66
2021/01/24 10:51:01;;;;;;;21.50;9.55;;;;;;;6.53;88.83;99060.70;1675632;85;21044;-63
2021/01/24 10:53:28;;;;;;;20.68;7.45;;;;;;;6.52;88.74;99054.42;1683334;85;21091;-63
2021/01/24 10:55:55;;;;;;;20.43;8.48;;;;;;;6.52;88.58;99048.14;1683300;85;21177;-65
2021/01/24 10:58:23;;;;;;;17.48;7.75;;;;;;;6.55;88.49;99050.45;1681686;84;21091;-63
2021/01/24 11:00:50;;;;;;;19.50;7.60;;;;;;;6.56;88.35;99050.25;1681807;85;21090;-64
2021/01/24 11:03:17;;;;;;;17.82;8.43;;;;;;;6.59;88.26;99055.80;1681903;85;21780;-63
2021/01/24 11:05:45;;;;;;;18.52;7.80;;;;;;;6.60;88.16;99039.80;1681876;85;21114;-64
2021/01/24 11:08:13;;;;;;;19.07;7.60;;;;;;;6.61;88.07;99045.03;1681983;85;21071;-64
2021/01/24 11:10:40;;;;;;;15.50;7.15;;;;;;;6.63;87.94;99027.97;1695407;84;21215;-65
2021/01/24 11:13:08;;;;;;;20.52;7.37;;;;;;;6.66;87.83;99028.09;1699586;84;21272;-63
2021/01/24 11:15:35;;;;;;;16.12;7.20;;;;;;;6.68;87.74;99022.75;1698780;84;21389;-63
2021/01/24 11:18:05;;;;;;;20.20;7.75;;;;;;;6.73;87.67;99021.30;1697013;84;21042;-67
2021/01/24 11:20:33;;;;;;;19.25;7.45;;;;;;;6.78;87.55;99024.23;1698449;84;21091;-63
2021/01/24 11:23:00;;;;;;;18.40;6.90;;;;;;;6.82;87.33;99017.33;1699221;84;21494;-63
2021/01/24 11:25:28;;;;;;;19.55;7.67;;;;;;;6.85;87.25;99009.59;1699654;84;21322;-65
2021/01/24 11:27:56;;;;;;;14.98;6.97;;;;;;;6.89;87.17;99014.92;1697564;83;21134;-62
2021/01/24 11:30:24;;;;;;;15.60;6.67;;;;;;;6.93;87.05;99012.63;1689283;84;21316;-62
2021/01/24 11:32:52;;;;;;;14.28;6.53;;;;;;;6.96;86.85;99017.66;1701472;83;21168;-63
2021/01/24 11:35:19;;;;;;;16.37;7.20;;;;;;;7.00;86.70;99012.95;1701386;84;21803;-65
2021/01/24 11:37:48;;;;;;;21.80;6.75;;;;;;;7.03;86.59;99017.66;1671648;85;21196;-64
2021/01/24 11:40:16;;;;;;;19.82;7.12;;;;;;;7.06;86.51;99001.74;1701221;84;21845;-64
2021/01/24 11:42:43;;;;;;;18.45;6.70;;;;;;;7.09;86.38;99006.77;1721245;83;21073;-65